sensor_id;sensor_type;location;lat;lon;timestamp;P1;durP1;ratioP1;P2;durP2;ratioP2
73100;SDS011;61288;53.446;-2.266;2023-04-02T00:00:25;9.32;;;2.00;;
73100;SDS011;61288;53.446;-2.266;2023-04-02T00:05:37;7.85;;;2.30;;
73100;SDS011;61288;53.446;-2.266;2023-04-02T00:08:26;4.85;;;2.00;;
73100;SDS011;61288;53.446;-2.266;2023-04-02T00:11:05;5.00;;;2.03;;
73100;SDS011;61288;53.446;-2.266;2023-04-02T00:13:40;4.85;;;2.10;;
73100;SDS011;61288;53.446;-2.266;2023-04-02T00:16:11;8.70;;;2.13;;
73100;SDS011;61288;53.446;-2.266;2023-04-02T00:18:41;6.78;;;2.20;;
73100;SDS011;61288;53.446;-2.266;2023-04-02T00:23:52;6.03;;;2.15;;
73100;SDS011;61288;53.446;-2.266;2023-04-02T00:26:19;5.60;;;1.88;;
73100;SDS011;61288;53.446;-2.266;2023-04-02T00:29:00;5.22;;;2.08;;
73100;SDS011;61288;53.446;-2.266;2023-04-02T00:31:27;5.47;;;2.00;;
73100;SDS011;61288;53.446;-2.266;2023-04-02T00:33:54;5.32;;;2.13;;
73100;SDS011;61288;53.446;-2.266;2023-04-02T00:36:21;4.85;;;1.92;;
73100;SDS011;61288;53.446;-2.266;2023-04-02T00:38:48;4.53;;;1.80;;
73100;SDS011;61288;53.446;-2.266;2023-04-02T00:41:18;8.60;;;2.13;;
73100;SDS011;61288;53.446;-2.266;2023-04-02T00:43:48;7.15;;;1.90;;
73100;SDS011;61288;53.446;-2.266;2023-04-02T00:46:19;6.25;;;2.05;;
73100;SDS011;61288;53.446;-2.266;2023-04-02T00:51:36;8.10;;;2.33;;
73100;SDS011;61288;53.446;-2.266;2023-04-02T00:54:06;6.60;;;2.22;;
73100;SDS011;61288;53.446;-2.266;2023-04-02T00:56:41;6.65;;;2.30;;
73100;SDS011;61288;53.446;-2.266;2023-04-02T00:59:46;6.63;;;1.90;;
73100;SDS011;61288;53.446;-2.266;2023-04-02T01:04:39;8.02;;;1.85;;
73100;SDS011;61288;53.446;-2.266;2023-04-02T01:07:06;6.88;;;1.98;;
73100;SDS011;61288;53.446;-2.266;2023-04-02T01:12:17;6.55;;;2.33;;
73100;SDS011;61288;53.446;-2.266;2023-04-02T01:22:35;5.85;;;2.03;;
73100;SDS011;61288;53.446;-2.266;2023-04-02T01:25:19;7.85;;;2.40;;
73100;SDS011;61288;53.446;-2.266;2023-04-02T01:27:59;5.45;;;1.90;;
73100;SDS011;61288;53.446;-2.266;2023-04-02T01:30:33;6.85;;;2.10;;
73100;SDS011;61288;53.446;-2.266;2023-04-02T01:33:00;7.38;;;2.20;;
73100;SDS011;61288;53.446;-2.266;2023-04-02T01:35:28;5.00;;;2.03;;
73100;SDS011;61288;53.446;-2.266;2023-04-02T01:38:09;4.57;;;2.15;;
73100;SDS011;61288;53.446;-2.266;2023-04-02T01:46:42;5.40;;;1.90;;
73100;SDS011;61288;53.446;-2.266;2023-04-02T01:49:11;4.30;;;1.80;;
73100;SDS011;61288;53.446;-2.266;2023-04-02T01:51:44;5.40;;;2.25;;
73100;SDS011;61288;53.446;-2.266;2023-04-02T01:54:14;6.55;;;2.03;;
73100;SDS011;61288;53.446;-2.266;2023-04-02T01:56:41;7.72;;;1.98;;
73100;SDS011;61288;53.446;-2.266;2023-04-02T01:59:09;6.85;;;1.73;;
73100;SDS011;61288;53.446;-2.266;2023-04-02T02:04:11;4.22;;;1.50;;
73100;SDS011;61288;53.446;-2.266;2023-04-02T02:06:38;3.78;;;1.55;;
73100;SDS011;61288;53.446;-2.266;2023-04-02T02:09:04;5.32;;;1.60;;
73100;SDS011;61288;53.446;-2.266;2023-04-02T02:11:33;4.90;;;1.40;;
73100;SDS011;61288;53.446;-2.266;2023-04-02T02:16:49;2.78;;;1.70;;
73100;SDS011;61288;53.446;-2.266;2023-04-02T02:22:27;5.47;;;1.90;;
73100;SDS011;61288;53.446;-2.266;2023-04-02T02:24:49;3.63;;;1.60;;
73100;SDS011;61288;53.446;-2.266;2023-04-02T02:32:19;3.10;;;1.40;;
73100;SDS011;61288;53.446;-2.266;2023-04-02T02:34:48;3.88;;;1.40;;
73100;SDS011;61288;53.446;-2.266;2023-04-02T02:37:39;4.60;;;1.50;;
73100;SDS011;61288;53.446;-2.266;2023-04-02T02:40:18;2.85;;;1.35;;
73100;SDS011;61288;53.446;-2.266;2023-04-02T02:42:49;4.05;;;1.60;;
73100;SDS011;61288;53.446;-2.266;2023-04-02T02:45:20;2.10;;;1.27;;
73100;SDS011;61288;53.446;-2.266;2023-04-02T02:47:49;3.30;;;1.45;;
73100;SDS011;61288;53.446;-2.266;2023-04-02T02:50:24;3.38;;;1.40;;
73100;SDS011;61288;53.446;-2.266;2023-04-02T02:52:59;3.42;;;1.48;;
73100;SDS011;61288;53.446;-2.266;2023-04-02T02:55:34;3.55;;;1.48;;
73100;SDS011;61288;53.446;-2.266;2023-04-02T02:58:07;3.33;;;1.48;;
73100;SDS011;61288;53.446;-2.266;2023-04-02T03:00:36;4.78;;;1.55;;
73100;SDS011;61288;53.446;-2.266;2023-04-02T03:03:04;3.47;;;1.40;;
73100;SDS011;61288;53.446;-2.266;2023-04-02T03:05:35;3.20;;;1.60;;
73100;SDS011;61288;53.446;-2.266;2023-04-02T03:08:02;4.72;;;1.30;;
73100;SDS011;61288;53.446;-2.266;2023-04-02T03:10:35;2.42;;;1.35;;
73100;SDS011;61288;53.446;-2.266;2023-04-02T03:15:56;2.40;;;1.30;;
73100;SDS011;61288;53.446;-2.266;2023-04-02T03:24:16;2.60;;;1.45;;
73100;SDS011;61288;53.446;-2.266;2023-04-02T03:26:43;1.90;;;1.48;;
73100;SDS011;61288;53.446;-2.266;2023-04-02T03:29:19;2.63;;;1.40;;
73100;SDS011;61288;53.446;-2.266;2023-04-02T03:31:53;4.07;;;1.50;;
73100;SDS011;61288;53.446;-2.266;2023-04-02T03:42:49;3.75;;;1.30;;
73100;SDS011;61288;53.446;-2.266;2023-04-02T03:50:39;2.28;;;1.20;;
73100;SDS011;61288;53.446;-2.266;2023-04-02T03:53:07;3.92;;;1.17;;
73100;SDS011;61288;53.446;-2.266;2023-04-02T03:55:34;3.05;;;1.48;;
73100;SDS011;61288;53.446;-2.266;2023-04-02T04:03:44;2.95;;;1.38;;
73100;SDS011;61288;53.446;-2.266;2023-04-02T04:08:55;3.60;;;1.55;;
73100;SDS011;61288;53.446;-2.266;2023-04-02T04:11:34;2.53;;;1.42;;
73100;SDS011;61288;53.446;-2.266;2023-04-02T04:14:12;3.53;;;1.70;;
73100;SDS011;61288;53.446;-2.266;2023-04-02T04:19:27;3.63;;;1.60;;
73100;SDS011;61288;53.446;-2.266;2023-04-02T04:22:22;5.32;;;1.70;;
73100;SDS011;61288;53.446;-2.266;2023-04-02T04:25:01;4.80;;;1.75;;
73100;SDS011;61288;53.446;-2.266;2023-04-02T04:33:18;3.95;;;1.67;;
73100;SDS011;61288;53.446;-2.266;2023-04-02T04:35:54;4.63;;;1.90;;
73100;SDS011;61288;53.446;-2.266;2023-04-02T04:41:00;5.55;;;1.48;;
73100;SDS011;61288;53.446;-2.266;2023-04-02T04:46:41;5.15;;;2.10;;
73100;SDS011;61288;53.446;-2.266;2023-04-02T04:51:57;4.55;;;1.63;;
73100;SDS011;61288;53.446;-2.266;2023-04-02T04:54:25;4.07;;;1.55;;
73100;SDS011;61288;53.446;-2.266;2023-04-02T04:56:56;7.40;;;1.90;;
73100;SDS011;61288;53.446;-2.266;2023-04-02T04:59:34;4.25;;;1.83;;
73100;SDS011;61288;53.446;-2.266;2023-04-02T05:04:42;5.57;;;1.80;;
73100;SDS011;61288;53.446;-2.266;2023-04-02T05:20:32;7.88;;;1.98;;
73100;SDS011;61288;53.446;-2.266;2023-04-02T05:23:17;5.15;;;1.60;;
73100;SDS011;61288;53.446;-2.266;2023-04-02T05:28:39;8.80;;;1.90;;
73100;SDS011;61288;53.446;-2.266;2023-04-02T05:34:12;7.25;;;1.70;;
73100;SDS011;61288;53.446;-2.266;2023-04-02T05:36:46;6.05;;;1.85;;
73100;SDS011;61288;53.446;-2.266;2023-04-02T05:39:15;9.70;;;2.28;;
73100;SDS011;61288;53.446;-2.266;2023-04-02T05:41:54;7.53;;;2.10;;
73100;SDS011;61288;53.446;-2.266;2023-04-02T05:44:26;9.02;;;2.13;;
73100;SDS011;61288;53.446;-2.266;2023-04-02T05:52:26;5.75;;;1.58;;
73100;SDS011;61288;53.446;-2.266;2023-04-02T05:57:38;9.93;;;2.15;;
73100;SDS011;61288;53.446;-2.266;2023-04-02T06:00:08;10.27;;;1.98;;
73100;SDS011;61288;53.446;-2.266;2023-04-02T06:02:42;7.85;;;1.98;;
73100;SDS011;61288;53.446;-2.266;2023-04-02T06:05:18;6.22;;;2.10;;
73100;SDS011;61288;53.446;-2.266;2023-04-02T06:08:02;7.75;;;2.20;;
73100;SDS011;61288;53.446;-2.266;2023-04-02T06:10:46;9.02;;;2.08;;
73100;SDS011;61288;53.446;-2.266;2023-04-02T06:13:25;9.23;;;1.77;;
73100;SDS011;61288;53.446;-2.266;2023-04-02T06:15:52;9.68;;;2.22;;
73100;SDS011;61288;53.446;-2.266;2023-04-02T06:18:33;9.13;;;2.05;;
73100;SDS011;61288;53.446;-2.266;2023-04-02T06:21:01;11.32;;;2.00;;
73100;SDS011;61288;53.446;-2.266;2023-04-02T06:23:44;16.38;;;2.55;;
73100;SDS011;61288;53.446;-2.266;2023-04-02T06:26:32;11.25;;;2.80;;
73100;SDS011;61288;53.446;-2.266;2023-04-02T06:31:52;14.10;;;2.75;;
73100;SDS011;61288;53.446;-2.266;2023-04-02T06:34:21;11.50;;;2.60;;
73100;SDS011;61288;53.446;-2.266;2023-04-02T06:36:53;13.23;;;2.85;;
73100;SDS011;61288;53.446;-2.266;2023-04-02T06:39:22;11.75;;;2.85;;
73100;SDS011;61288;53.446;-2.266;2023-04-02T06:42:00;20.35;;;3.17;;
73100;SDS011;61288;53.446;-2.266;2023-04-02T06:44:34;16.15;;;3.53;;
73100;SDS011;61288;53.446;-2.266;2023-04-02T06:47:03;14.07;;;3.22;;
73100;SDS011;61288;53.446;-2.266;2023-04-02T06:49:41;16.48;;;3.08;;
73100;SDS011;61288;53.446;-2.266;2023-04-02T07:00:45;14.45;;;3.25;;
73100;SDS011;61288;53.446;-2.266;2023-04-02T07:03:18;13.73;;;3.05;;
73100;SDS011;61288;53.446;-2.266;2023-04-02T07:05:51;10.55;;;3.00;;
73100;SDS011;61288;53.446;-2.266;2023-04-02T07:08:17;14.75;;;3.40;;
73100;SDS011;61288;53.446;-2.266;2023-04-02T07:10:43;14.57;;;3.40;;
73100;SDS011;61288;53.446;-2.266;2023-04-02T07:13:13;16.60;;;4.03;;
73100;SDS011;61288;53.446;-2.266;2023-04-02T07:15:40;14.38;;;4.07;;
73100;SDS011;61288;53.446;-2.266;2023-04-02T07:18:07;11.52;;;3.08;;
73100;SDS011;61288;53.446;-2.266;2023-04-02T07:20:56;15.55;;;2.97;;
73100;SDS011;61288;53.446;-2.266;2023-04-02T07:23:25;14.13;;;2.88;;
73100;SDS011;61288;53.446;-2.266;2023-04-02T07:25:54;11.02;;;2.92;;
73100;SDS011;61288;53.446;-2.266;2023-04-02T07:28:21;17.30;;;3.10;;
73100;SDS011;61288;53.446;-2.266;2023-04-02T07:30:47;12.70;;;3.45;;
73100;SDS011;61288;53.446;-2.266;2023-04-02T07:33:13;15.82;;;3.10;;
73100;SDS011;61288;53.446;-2.266;2023-04-02T07:35:40;13.27;;;3.13;;
73100;SDS011;61288;53.446;-2.266;2023-04-02T07:38:07;13.23;;;2.85;;
73100;SDS011;61288;53.446;-2.266;2023-04-02T07:40:37;13.25;;;2.75;;
73100;SDS011;61288;53.446;-2.266;2023-04-02T07:43:02;14.68;;;3.65;;
73100;SDS011;61288;53.446;-2.266;2023-04-02T07:45:28;12.85;;;2.70;;
73100;SDS011;61288;53.446;-2.266;2023-04-02T07:47:54;11.05;;;2.53;;
73100;SDS011;61288;53.446;-2.266;2023-04-02T07:50:20;14.10;;;3.20;;
73100;SDS011;61288;53.446;-2.266;2023-04-02T07:52:46;11.90;;;2.97;;
73100;SDS011;61288;53.446;-2.266;2023-04-02T07:55:13;10.70;;;2.15;;
73100;SDS011;61288;53.446;-2.266;2023-04-02T07:57:48;13.52;;;2.65;;
73100;SDS011;61288;53.446;-2.266;2023-04-02T08:00:20;9.18;;;2.42;;
73100;SDS011;61288;53.446;-2.266;2023-04-02T08:02:49;11.70;;;2.38;;
73100;SDS011;61288;53.446;-2.266;2023-04-02T08:05:17;13.20;;;2.42;;
73100;SDS011;61288;53.446;-2.266;2023-04-02T08:07:43;15.00;;;2.72;;
73100;SDS011;61288;53.446;-2.266;2023-04-02T08:10:15;10.77;;;1.83;;
73100;SDS011;61288;53.446;-2.266;2023-04-02T08:12:46;11.45;;;2.13;;
73100;SDS011;61288;53.446;-2.266;2023-04-02T08:15:20;14.40;;;2.90;;
73100;SDS011;61288;53.446;-2.266;2023-04-02T08:17:46;8.45;;;2.08;;
73100;SDS011;61288;53.446;-2.266;2023-04-02T08:20:18;7.95;;;1.98;;
73100;SDS011;61288;53.446;-2.266;2023-04-02T08:22:48;8.98;;;2.30;;
73100;SDS011;61288;53.446;-2.266;2023-04-02T08:25:14;12.65;;;2.55;;
73100;SDS011;61288;53.446;-2.266;2023-04-02T08:27:40;11.82;;;2.45;;
73100;SDS011;61288;53.446;-2.266;2023-04-02T08:30:06;11.50;;;2.47;;
73100;SDS011;61288;53.446;-2.266;2023-04-02T08:32:33;11.82;;;2.40;;
73100;SDS011;61288;53.446;-2.266;2023-04-02T08:35:08;10.15;;;2.28;;
73100;SDS011;61288;53.446;-2.266;2023-04-02T08:37:35;7.20;;;2.00;;
73100;SDS011;61288;53.446;-2.266;2023-04-02T08:40:01;10.30;;;2.28;;
73100;SDS011;61288;53.446;-2.266;2023-04-02T08:47:49;10.95;;;2.63;;
73100;SDS011;61288;53.446;-2.266;2023-04-02T08:50:32;15.18;;;2.50;;
73100;SDS011;61288;53.446;-2.266;2023-04-02T08:53:05;6.97;;;2.70;;
73100;SDS011;61288;53.446;-2.266;2023-04-02T08:55:39;11.30;;;2.55;;
73100;SDS011;61288;53.446;-2.266;2023-04-02T08:58:36;12.73;;;2.45;;
73100;SDS011;61288;53.446;-2.266;2023-04-02T09:01:05;11.82;;;2.63;;
73100;SDS011;61288;53.446;-2.266;2023-04-02T09:03:37;12.60;;;2.42;;
73100;SDS011;61288;53.446;-2.266;2023-04-02T09:06:07;10.95;;;2.42;;
73100;SDS011;61288;53.446;-2.266;2023-04-02T09:08:36;11.40;;;2.30;;
73100;SDS011;61288;53.446;-2.266;2023-04-02T09:13:35;11.50;;;2.20;;
73100;SDS011;61288;53.446;-2.266;2023-04-02T09:18:39;11.85;;;2.22;;
73100;SDS011;61288;53.446;-2.266;2023-04-02T09:23:58;6.40;;;1.80;;
73100;SDS011;61288;53.446;-2.266;2023-04-02T09:26:29;11.25;;;2.17;;
73100;SDS011;61288;53.446;-2.266;2023-04-02T09:29:00;11.98;;;2.30;;
73100;SDS011;61288;53.446;-2.266;2023-04-02T09:31:37;10.40;;;2.45;;
73100;SDS011;61288;53.446;-2.266;2023-04-02T09:34:30;8.43;;;1.92;;
73100;SDS011;61288;53.446;-2.266;2023-04-02T09:37:05;11.32;;;2.42;;
73100;SDS011;61288;53.446;-2.266;2023-04-02T09:39:33;9.52;;;2.33;;
73100;SDS011;61288;53.446;-2.266;2023-04-02T09:41:59;17.15;;;2.35;;
73100;SDS011;61288;53.446;-2.266;2023-04-02T09:44:35;11.52;;;2.63;;
73100;SDS011;61288;53.446;-2.266;2023-04-02T09:47:02;15.70;;;2.67;;
73100;SDS011;61288;53.446;-2.266;2023-04-02T09:49:33;10.90;;;2.60;;
73100;SDS011;61288;53.446;-2.266;2023-04-02T09:54:35;11.38;;;2.28;;
73100;SDS011;61288;53.446;-2.266;2023-04-02T09:57:05;10.60;;;2.70;;
73100;SDS011;61288;53.446;-2.266;2023-04-02T09:59:41;11.63;;;2.17;;
73100;SDS011;61288;53.446;-2.266;2023-04-02T10:02:26;10.38;;;2.35;;
73100;SDS011;61288;53.446;-2.266;2023-04-02T10:04:54;9.18;;;2.47;;
73100;SDS011;61288;53.446;-2.266;2023-04-02T10:07:35;14.63;;;2.47;;
73100;SDS011;61288;53.446;-2.266;2023-04-02T10:10:14;14.15;;;2.40;;
73100;SDS011;61288;53.446;-2.266;2023-04-02T10:12:41;11.23;;;2.40;;
73100;SDS011;61288;53.446;-2.266;2023-04-02T10:15:14;8.50;;;2.53;;
73100;SDS011;61288;53.446;-2.266;2023-04-02T10:17:50;9.52;;;2.10;;
73100;SDS011;61288;53.446;-2.266;2023-04-02T10:20:25;14.10;;;2.42;;
73100;SDS011;61288;53.446;-2.266;2023-04-02T10:22:53;9.73;;;2.83;;
73100;SDS011;61288;53.446;-2.266;2023-04-02T10:25:19;12.35;;;2.25;;
73100;SDS011;61288;53.446;-2.266;2023-04-02T10:28:12;12.95;;;2.45;;
73100;SDS011;61288;53.446;-2.266;2023-04-02T10:30:56;9.20;;;2.03;;
73100;SDS011;61288;53.446;-2.266;2023-04-02T10:33:37;8.77;;;2.10;;
73100;SDS011;61288;53.446;-2.266;2023-04-02T10:36:10;11.90;;;2.42;;
73100;SDS011;61288;53.446;-2.266;2023-04-02T10:38:49;9.95;;;2.00;;
73100;SDS011;61288;53.446;-2.266;2023-04-02T10:52:48;10.38;;;2.53;;
73100;SDS011;61288;53.446;-2.266;2023-04-02T10:55:36;10.95;;;2.45;;
73100;SDS011;61288;53.446;-2.266;2023-04-02T11:00:51;11.00;;;2.20;;
73100;SDS011;61288;53.446;-2.266;2023-04-02T11:03:28;10.15;;;2.47;;
73100;SDS011;61288;53.446;-2.266;2023-04-02T11:06:44;7.55;;;2.10;;
73100;SDS011;61288;53.446;-2.266;2023-04-02T11:08:56;10.73;;;2.30;;
73100;SDS011;61288;53.446;-2.266;2023-04-02T11:12:00;12.00;;;2.38;;
73100;SDS011;61288;53.446;-2.266;2023-04-02T11:14:25;15.57;;;2.45;;
73100;SDS011;61288;53.446;-2.266;2023-04-02T11:16:53;12.25;;;2.30;;
73100;SDS011;61288;53.446;-2.266;2023-04-02T11:19:26;11.52;;;1.95;;
73100;SDS011;61288;53.446;-2.266;2023-04-02T11:22:01;10.23;;;2.40;;
73100;SDS011;61288;53.446;-2.266;2023-04-02T11:29:45;9.98;;;2.00;;
73100;SDS011;61288;53.446;-2.266;2023-04-02T11:32:40;12.68;;;2.65;;
73100;SDS011;61288;53.446;-2.266;2023-04-02T11:37:50;10.52;;;2.70;;
73100;SDS011;61288;53.446;-2.266;2023-04-02T11:48:46;11.93;;;2.42;;
73100;SDS011;61288;53.446;-2.266;2023-04-02T11:53:51;11.52;;;2.25;;
73100;SDS011;61288;53.446;-2.266;2023-04-02T11:56:27;9.75;;;2.47;;
73100;SDS011;61288;53.446;-2.266;2023-04-02T11:59:05;9.43;;;2.70;;
73100;SDS011;61288;53.446;-2.266;2023-04-02T12:11:49;10.20;;;2.50;;
73100;SDS011;61288;53.446;-2.266;2023-04-02T12:17:03;14.00;;;2.58;;
73100;SDS011;61288;53.446;-2.266;2023-04-02T12:19:37;9.38;;;2.42;;
73100;SDS011;61288;53.446;-2.266;2023-04-02T12:22:03;10.85;;;2.88;;
73100;SDS011;61288;53.446;-2.266;2023-04-02T12:24:29;10.55;;;2.60;;
73100;SDS011;61288;53.446;-2.266;2023-04-02T12:27:08;11.30;;;2.10;;
73100;SDS011;61288;53.446;-2.266;2023-04-02T12:29:40;7.68;;;1.85;;
73100;SDS011;61288;53.446;-2.266;2023-04-02T12:32:15;10.27;;;1.90;;
73100;SDS011;61288;53.446;-2.266;2023-04-02T12:35:04;11.07;;;2.13;;
73100;SDS011;61288;53.446;-2.266;2023-04-02T12:37:30;13.32;;;2.22;;
73100;SDS011;61288;53.446;-2.266;2023-04-02T12:40:11;11.05;;;1.75;;
73100;SDS011;61288;53.446;-2.266;2023-04-02T12:42:42;11.45;;;1.90;;
73100;SDS011;61288;53.446;-2.266;2023-04-02T12:45:20;10.60;;;2.47;;
73100;SDS011;61288;53.446;-2.266;2023-04-02T12:47:48;10.05;;;2.13;;
73100;SDS011;61288;53.446;-2.266;2023-04-02T12:50:14;10.65;;;2.63;;
73100;SDS011;61288;53.446;-2.266;2023-04-02T12:52:44;10.65;;;2.22;;
73100;SDS011;61288;53.446;-2.266;2023-04-02T12:55:19;12.10;;;2.40;;
73100;SDS011;61288;53.446;-2.266;2023-04-02T12:57:56;8.77;;;2.13;;
73100;SDS011;61288;53.446;-2.266;2023-04-02T13:02:59;11.23;;;2.00;;
73100;SDS011;61288;53.446;-2.266;2023-04-02T13:05:31;10.68;;;1.92;;
73100;SDS011;61288;53.446;-2.266;2023-04-02T13:07:57;7.68;;;2.05;;
73100;SDS011;61288;53.446;-2.266;2023-04-02T13:10:24;11.07;;;2.13;;
73100;SDS011;61288;53.446;-2.266;2023-04-02T13:12:54;8.18;;;2.08;;
73100;SDS011;61288;53.446;-2.266;2023-04-02T13:15:28;11.68;;;2.00;;
73100;SDS011;61288;53.446;-2.266;2023-04-02T13:18:04;8.60;;;2.45;;
73100;SDS011;61288;53.446;-2.266;2023-04-02T13:20:42;10.38;;;2.45;;
73100;SDS011;61288;53.446;-2.266;2023-04-02T13:25:52;11.43;;;2.10;;
73100;SDS011;61288;53.446;-2.266;2023-04-02T13:28:19;8.40;;;2.00;;
73100;SDS011;61288;53.446;-2.266;2023-04-02T13:30:44;10.75;;;2.00;;
73100;SDS011;61288;53.446;-2.266;2023-04-02T13:33:10;8.43;;;2.22;;
73100;SDS011;61288;53.446;-2.266;2023-04-02T13:35:37;9.23;;;2.00;;
73100;SDS011;61288;53.446;-2.266;2023-04-02T13:38:11;7.13;;;1.77;;
73100;SDS011;61288;53.446;-2.266;2023-04-02T14:11:59;10.48;;;1.85;;
73100;SDS011;61288;53.446;-2.266;2023-04-02T14:36:48;10.27;;;2.20;;
73100;SDS011;61288;53.446;-2.266;2023-04-02T14:42:23;11.40;;;2.25;;
73100;SDS011;61288;53.446;-2.266;2023-04-02T14:47:55;9.85;;;2.45;;
73100;SDS011;61288;53.446;-2.266;2023-04-02T14:50:36;9.48;;;1.92;;
73100;SDS011;61288;53.446;-2.266;2023-04-02T14:53:25;12.10;;;2.28;;
73100;SDS011;61288;53.446;-2.266;2023-04-02T14:55:58;11.23;;;2.17;;
73100;SDS011;61288;53.446;-2.266;2023-04-02T14:58:30;11.90;;;2.50;;
73100;SDS011;61288;53.446;-2.266;2023-04-02T15:01:02;9.73;;;2.15;;
73100;SDS011;61288;53.446;-2.266;2023-04-02T15:03:35;9.25;;;2.47;;
73100;SDS011;61288;53.446;-2.266;2023-04-02T15:06:09;8.65;;;2.13;;
73100;SDS011;61288;53.446;-2.266;2023-04-02T15:08:41;9.55;;;2.08;;
73100;SDS011;61288;53.446;-2.266;2023-04-02T15:11:18;8.80;;;2.20;;
73100;SDS011;61288;53.446;-2.266;2023-04-02T15:13:54;11.43;;;2.17;;
73100;SDS011;61288;53.446;-2.266;2023-04-02T15:16:25;8.50;;;2.08;;
73100;SDS011;61288;53.446;-2.266;2023-04-02T15:18:52;9.77;;;2.28;;
73100;SDS011;61288;53.446;-2.266;2023-04-02T15:34:43;8.85;;;2.30;;
73100;SDS011;61288;53.446;-2.266;2023-04-02T15:42:29;12.77;;;2.33;;
73100;SDS011;61288;53.446;-2.266;2023-04-02T15:53:00;8.77;;;2.08;;
73100;SDS011;61288;53.446;-2.266;2023-04-02T16:09:00;9.40;;;2.45;;
73100;SDS011;61288;53.446;-2.266;2023-04-02T16:11:27;9.35;;;2.30;;
73100;SDS011;61288;53.446;-2.266;2023-04-02T16:13:57;10.85;;;2.40;;
73100;SDS011;61288;53.446;-2.266;2023-04-02T16:16:30;10.93;;;2.50;;
73100;SDS011;61288;53.446;-2.266;2023-04-02T16:21:52;7.95;;;1.92;;
73100;SDS011;61288;53.446;-2.266;2023-04-02T16:24:25;9.77;;;2.38;;
73100;SDS011;61288;53.446;-2.266;2023-04-02T16:26:56;10.65;;;2.50;;
73100;SDS011;61288;53.446;-2.266;2023-04-02T16:35:23;10.40;;;2.40;;
73100;SDS011;61288;53.446;-2.266;2023-04-02T16:37:53;12.70;;;2.72;;
73100;SDS011;61288;53.446;-2.266;2023-04-02T16:40:30;10.48;;;2.45;;
73100;SDS011;61288;53.446;-2.266;2023-04-02T16:43:14;10.45;;;2.30;;
73100;SDS011;61288;53.446;-2.266;2023-04-02T16:51:16;10.02;;;2.17;;
73100;SDS011;61288;53.446;-2.266;2023-04-02T17:08:42;15.95;;;3.30;;
73100;SDS011;61288;53.446;-2.266;2023-04-02T17:11:13;15.70;;;4.93;;
73100;SDS011;61288;53.446;-2.266;2023-04-02T17:14:02;13.13;;;3.38;;
73100;SDS011;61288;53.446;-2.266;2023-04-02T17:16:36;10.68;;;3.00;;
73100;SDS011;61288;53.446;-2.266;2023-04-02T17:19:14;12.35;;;3.60;;
73100;SDS011;61288;53.446;-2.266;2023-04-02T17:21:41;10.68;;;2.80;;
73100;SDS011;61288;53.446;-2.266;2023-04-02T17:26:51;10.23;;;2.20;;
73100;SDS011;61288;53.446;-2.266;2023-04-02T17:29:41;10.68;;;2.28;;
73100;SDS011;61288;53.446;-2.266;2023-04-02T17:34:56;10.40;;;2.50;;
73100;SDS011;61288;53.446;-2.266;2023-04-02T17:37:41;10.07;;;2.35;;
73100;SDS011;61288;53.446;-2.266;2023-04-02T17:40:21;11.00;;;2.40;;
73100;SDS011;61288;53.446;-2.266;2023-04-02T17:45:49;11.30;;;2.80;;
73100;SDS011;61288;53.446;-2.266;2023-04-02T17:48:19;9.30;;;2.60;;
73100;SDS011;61288;53.446;-2.266;2023-04-02T18:15:44;8.35;;;2.22;;
73100;SDS011;61288;53.446;-2.266;2023-04-02T18:44:54;11.23;;;2.65;;
73100;SDS011;61288;53.446;-2.266;2023-04-02T18:50:14;11.57;;;3.30;;
73100;SDS011;61288;53.446;-2.266;2023-04-02T18:52:54;11.23;;;2.60;;
73100;SDS011;61288;53.446;-2.266;2023-04-02T18:55:27;8.65;;;2.40;;
73100;SDS011;61288;53.446;-2.266;2023-04-02T18:57:59;8.32;;;2.70;;
73100;SDS011;61288;53.446;-2.266;2023-04-02T19:00:31;8.45;;;2.92;;
73100;SDS011;61288;53.446;-2.266;2023-04-02T19:03:01;10.18;;;2.35;;
73100;SDS011;61288;53.446;-2.266;2023-04-02T19:08:07;8.57;;;2.33;;
73100;SDS011;61288;53.446;-2.266;2023-04-02T19:10:42;8.93;;;2.38;;
73100;SDS011;61288;53.446;-2.266;2023-04-02T19:13:17;9.75;;;3.05;;
73100;SDS011;61288;53.446;-2.266;2023-04-02T19:27:12;12.50;;;3.20;;
73100;SDS011;61288;53.446;-2.266;2023-04-02T19:32:51;9.20;;;3.10;;
73100;SDS011;61288;53.446;-2.266;2023-04-02T19:43:47;11.88;;;3.58;;
73100;SDS011;61288;53.446;-2.266;2023-04-02T19:46:12;12.65;;;3.90;;
73100;SDS011;61288;53.446;-2.266;2023-04-02T19:51:16;12.77;;;3.28;;
73100;SDS011;61288;53.446;-2.266;2023-04-02T19:53:41;8.35;;;2.80;;
73100;SDS011;61288;53.446;-2.266;2023-04-02T19:56:06;13.43;;;3.17;;
73100;SDS011;61288;53.446;-2.266;2023-04-02T19:58:33;12.73;;;2.53;;
73100;SDS011;61288;53.446;-2.266;2023-04-02T20:01:00;10.60;;;2.90;;
73100;SDS011;61288;53.446;-2.266;2023-04-02T20:03:26;9.38;;;2.95;;
73100;SDS011;61288;53.446;-2.266;2023-04-02T20:05:52;10.48;;;3.25;;
73100;SDS011;61288;53.446;-2.266;2023-04-02T20:08:18;12.00;;;2.92;;
73100;SDS011;61288;53.446;-2.266;2023-04-02T20:10:43;12.35;;;2.92;;
73100;SDS011;61288;53.446;-2.266;2023-04-02T20:13:10;11.07;;;2.63;;
73100;SDS011;61288;53.446;-2.266;2023-04-02T20:15:37;11.57;;;2.72;;
73100;SDS011;61288;53.446;-2.266;2023-04-02T20:18:04;9.00;;;2.78;;
73100;SDS011;61288;53.446;-2.266;2023-04-02T20:20:29;10.57;;;2.72;;
73100;SDS011;61288;53.446;-2.266;2023-04-02T20:22:55;8.98;;;3.00;;
73100;SDS011;61288;53.446;-2.266;2023-04-02T20:25:20;7.63;;;2.85;;
73100;SDS011;61288;53.446;-2.266;2023-04-02T20:27:46;10.45;;;2.75;;
73100;SDS011;61288;53.446;-2.266;2023-04-02T20:30:13;9.50;;;3.10;;
73100;SDS011;61288;53.446;-2.266;2023-04-02T20:32:38;11.25;;;3.05;;
73100;SDS011;61288;53.446;-2.266;2023-04-02T20:35:04;11.32;;;2.90;;
73100;SDS011;61288;53.446;-2.266;2023-04-02T20:37:30;9.63;;;2.75;;
73100;SDS011;61288;53.446;-2.266;2023-04-02T20:39:56;8.32;;;2.30;;
73100;SDS011;61288;53.446;-2.266;2023-04-02T20:42:26;10.55;;;3.13;;
73100;SDS011;61288;53.446;-2.266;2023-04-02T20:44:54;9.02;;;2.63;;
73100;SDS011;61288;53.446;-2.266;2023-04-02T20:47:20;9.30;;;3.55;;
73100;SDS011;61288;53.446;-2.266;2023-04-02T20:49:46;9.02;;;3.13;;
73100;SDS011;61288;53.446;-2.266;2023-04-02T20:52:14;10.85;;;3.08;;
73100;SDS011;61288;53.446;-2.266;2023-04-02T20:54:40;6.72;;;2.40;;
73100;SDS011;61288;53.446;-2.266;2023-04-02T20:57:05;9.57;;;3.05;;
73100;SDS011;61288;53.446;-2.266;2023-04-02T20:59:32;11.90;;;2.78;;
73100;SDS011;61288;53.446;-2.266;2023-04-02T21:01:57;10.15;;;2.90;;
73100;SDS011;61288;53.446;-2.266;2023-04-02T21:04:23;13.38;;;3.00;;
73100;SDS011;61288;53.446;-2.266;2023-04-02T21:06:48;10.38;;;2.90;;
73100;SDS011;61288;53.446;-2.266;2023-04-02T21:09:16;15.23;;;2.72;;
73100;SDS011;61288;53.446;-2.266;2023-04-02T21:11:42;9.07;;;2.97;;
73100;SDS011;61288;53.446;-2.266;2023-04-02T21:14:08;9.13;;;2.45;;
73100;SDS011;61288;53.446;-2.266;2023-04-02T21:19:11;9.90;;;2.33;;
73100;SDS011;61288;53.446;-2.266;2023-04-02T21:21:37;10.68;;;2.50;;
73100;SDS011;61288;53.446;-2.266;2023-04-02T21:24:04;5.38;;;2.50;;
73100;SDS011;61288;53.446;-2.266;2023-04-02T21:26:32;11.82;;;3.58;;
73100;SDS011;61288;53.446;-2.266;2023-04-02T21:29:04;10.82;;;2.65;;
73100;SDS011;61288;53.446;-2.266;2023-04-02T21:31:33;8.38;;;2.88;;
73100;SDS011;61288;53.446;-2.266;2023-04-02T21:34:00;9.40;;;2.92;;
73100;SDS011;61288;53.446;-2.266;2023-04-02T21:36:36;9.23;;;2.83;;
73100;SDS011;61288;53.446;-2.266;2023-04-02T21:39:09;9.05;;;2.88;;
73100;SDS011;61288;53.446;-2.266;2023-04-02T21:41:38;9.27;;;2.97;;
73100;SDS011;61288;53.446;-2.266;2023-04-02T21:44:05;7.68;;;2.40;;
73100;SDS011;61288;53.446;-2.266;2023-04-02T21:46:34;8.32;;;2.75;;
73100;SDS011;61288;53.446;-2.266;2023-04-02T21:49:03;12.55;;;2.88;;
73100;SDS011;61288;53.446;-2.266;2023-04-02T21:51:32;9.48;;;2.50;;
73100;SDS011;61288;53.446;-2.266;2023-04-02T21:53:58;9.27;;;2.53;;